This is the latest recevied weather packets stored in our database for station/object F4FSZ-11. If no packets are shown the sender has not sent any weather packets the latest 10 day(s).
| Time | Temp. | Humidity | Pressure | Rain* | Wind** | Luminosity | Snow |
|---|---|---|---|---|---|---|---|
| 1777764819 | 15° C | 54% | 1010.5 hPa | - | - | - | - |
| 1777763919 | 15.56° C | 56% | 1010.7 hPa | - | - | - | - |
| 1777763019 | 15.56° C | 56% | 1010.8 hPa | - | - | - | - |
| 1777762119 | 15.56° C | 56% | 1010.8 hPa | - | - | - | - |
| 1777761219 | 15.56° C | 56% | 1010.7 hPa | - | - | - | - |
| 1777760319 | 15.56° C | 54% | 1010.7 hPa | - | - | - | - |
| 1777759419 | 16.11° C | 52% | 1010.7 hPa | - | - | - | - |
| 1777758518 | 15.56° C | 54% | 1010.8 hPa | - | - | - | - |
| 1777757618 | 15.56° C | 53% | 1010.8 hPa | - | - | - | - |
| 1777756718 | 15.56° C | 52% | 1010.8 hPa | - | - | - | - |
| 1777755818 | 15.56° C | 55% | 1010.9 hPa | - | - | - | - |
| 1777754918 | 15° C | 54% | 1010.9 hPa | - | - | - | - |
| 1777754018 | 15.56° C | 55% | 1011 hPa | - | - | - | - |
| 1777753118 | 15.56° C | 54% | 1011 hPa | - | - | - | - |
| 1777752218 | 15.56° C | 52% | 1010.9 hPa | - | - | - | - |
| 1777751318 | 15.56° C | 52% | 1010.9 hPa | - | - | - | - |
| 1777750418 | 15.56° C | 54% | 1010.8 hPa | - | - | - | - |
| 1777749518 | 15.56° C | 53% | 1010.7 hPa | - | - | - | - |
| 1777748618 | 16.11° C | 53% | 1010.6 hPa | - | - | - | - |
| 1777747718 | 16.67° C | 51% | 1010.5 hPa | - | - | - | - |
| 1777745918 | 19.44° C | 47% | 1010.3 hPa | - | - | - | - |
| 1777745018 | 21.67° C | 46% | 1010.3 hPa | - | - | - | - |
| 1777744118 | 23.33° C | 41% | 1010.3 hPa | - | - | - | - |
| 1777743217 | 23.89° C | 44% | 1010.4 hPa | - | - | - | - |
| 1777742317 | 24.44° C | 43% | 1010.4 hPa | - | - | - | - |
* Rain since midnight (hover to see other rain measurements)
** Current wind speed in m/s (hover to see current wind gust speed)